sensor_id;sensor_type;location;lat;lon;timestamp;P1;durP1;ratioP1;P2;durP2;ratioP2
79220;SDS011;68648;52.114;5.424;2023-04-25T00:02:00;9.68;;;1.23;;
79220;SDS011;68648;52.114;5.424;2023-04-25T00:06:54;7.75;;;1.30;;
79220;SDS011;68648;52.114;5.424;2023-04-25T00:11:47;6.32;;;0.68;;
79220;SDS011;68648;52.114;5.424;2023-04-25T00:14:14;10.13;;;1.17;;
79220;SDS011;68648;52.114;5.424;2023-04-25T00:16:41;9.57;;;1.90;;
79220;SDS011;68648;52.114;5.424;2023-04-25T00:19:10;10.57;;;1.30;;
79220;SDS011;68648;52.114;5.424;2023-04-25T00:24:06;7.68;;;1.45;;
79220;SDS011;68648;52.114;5.424;2023-04-25T00:26:34;12.00;;;1.83;;
79220;SDS011;68648;52.114;5.424;2023-04-25T00:29:02;12.68;;;1.25;;
79220;SDS011;68648;52.114;5.424;2023-04-25T00:31:28;10.93;;;1.33;;
79220;SDS011;68648;52.114;5.424;2023-04-25T00:33:55;12.25;;;1.20;;
79220;SDS011;68648;52.114;5.424;2023-04-25T00:36:22;11.23;;;2.38;;
79220;SDS011;68648;52.114;5.424;2023-04-25T00:38:49;15.48;;;1.80;;
79220;SDS011;68648;52.114;5.424;2023-04-25T00:41:16;14.95;;;1.67;;
79220;SDS011;68648;52.114;5.424;2023-04-25T00:43:42;11.45;;;1.63;;
79220;SDS011;68648;52.114;5.424;2023-04-25T00:46:11;11.55;;;1.75;;
79220;SDS011;68648;52.114;5.424;2023-04-25T00:51:04;7.07;;;1.17;;
79220;SDS011;68648;52.114;5.424;2023-04-25T00:53:31;8.73;;;1.10;;
79220;SDS011;68648;52.114;5.424;2023-04-25T00:55:58;6.93;;;1.55;;
79220;SDS011;68648;52.114;5.424;2023-04-25T00:58:25;9.48;;;1.80;;
79220;SDS011;68648;52.114;5.424;2023-04-25T01:00:52;15.68;;;2.30;;
79220;SDS011;68648;52.114;5.424;2023-04-25T01:03:19;12.55;;;1.42;;
79220;SDS011;68648;52.114;5.424;2023-04-25T01:05:46;10.90;;;1.98;;
79220;SDS011;68648;52.114;5.424;2023-04-25T01:08:14;10.85;;;1.60;;
79220;SDS011;68648;52.114;5.424;2023-04-25T01:10:41;12.20;;;1.85;;
79220;SDS011;68648;52.114;5.424;2023-04-25T01:13:10;11.60;;;1.38;;
79220;SDS011;68648;52.114;5.424;2023-04-25T01:15:38;10.63;;;1.65;;
79220;SDS011;68648;52.114;5.424;2023-04-25T01:20:32;7.13;;;1.38;;
79220;SDS011;68648;52.114;5.424;2023-04-25T01:22:59;16.45;;;1.60;;
79220;SDS011;68648;52.114;5.424;2023-04-25T01:25:28;9.75;;;1.15;;
79220;SDS011;68648;52.114;5.424;2023-04-25T01:27:56;8.43;;;1.20;;
79220;SDS011;68648;52.114;5.424;2023-04-25T01:30:25;9.27;;;1.40;;
79220;SDS011;68648;52.114;5.424;2023-04-25T01:32:56;9.38;;;1.42;;
79220;SDS011;68648;52.114;5.424;2023-04-25T01:35:24;6.45;;;1.52;;
79220;SDS011;68648;52.114;5.424;2023-04-25T01:37:51;12.38;;;1.35;;
79220;SDS011;68648;52.114;5.424;2023-04-25T01:40:18;11.00;;;1.40;;
79220;SDS011;68648;52.114;5.424;2023-04-25T01:42:47;13.73;;;2.05;;
79220;SDS011;68648;52.114;5.424;2023-04-25T01:45:14;9.73;;;1.60;;
79220;SDS011;68648;52.114;5.424;2023-04-25T01:47:41;10.90;;;1.67;;
79220;SDS011;68648;52.114;5.424;2023-04-25T01:50:10;11.57;;;1.60;;
79220;SDS011;68648;52.114;5.424;2023-04-25T01:52:37;7.07;;;1.30;;
79220;SDS011;68648;52.114;5.424;2023-04-25T01:55:05;11.38;;;1.27;;
79220;SDS011;68648;52.114;5.424;2023-04-25T01:57:35;18.98;;;2.08;;
79220;SDS011;68648;52.114;5.424;2023-04-25T02:00:03;8.52;;;1.30;;
79220;SDS011;68648;52.114;5.424;2023-04-25T02:02:31;17.98;;;1.67;;
79220;SDS011;68648;52.114;5.424;2023-04-25T02:04:57;9.10;;;1.20;;
79220;SDS011;68648;52.114;5.424;2023-04-25T02:07:25;11.90;;;1.25;;
79220;SDS011;68648;52.114;5.424;2023-04-25T02:09:52;10.00;;;2.30;;
79220;SDS011;68648;52.114;5.424;2023-04-25T02:12:19;6.97;;;1.10;;
79220;SDS011;68648;52.114;5.424;2023-04-25T02:14:46;7.97;;;1.35;;
79220;SDS011;68648;52.114;5.424;2023-04-25T02:17:12;7.75;;;1.27;;
79220;SDS011;68648;52.114;5.424;2023-04-25T02:19:41;13.93;;;1.67;;
79220;SDS011;68648;52.114;5.424;2023-04-25T02:24:34;11.63;;;1.60;;
79220;SDS011;68648;52.114;5.424;2023-04-25T02:29:29;8.75;;;1.10;;
79220;SDS011;68648;52.114;5.424;2023-04-25T02:31:56;12.60;;;1.30;;
79220;SDS011;68648;52.114;5.424;2023-04-25T02:34:22;11.50;;;1.50;;
79220;SDS011;68648;52.114;5.424;2023-04-25T02:36:50;9.93;;;1.52;;
79220;SDS011;68648;52.114;5.424;2023-04-25T02:39:17;12.02;;;1.15;;
79220;SDS011;68648;52.114;5.424;2023-04-25T02:41:44;9.20;;;1.55;;
79220;SDS011;68648;52.114;5.424;2023-04-25T02:44:10;12.10;;;1.48;;
79220;SDS011;68648;52.114;5.424;2023-04-25T02:49:05;5.18;;;1.08;;
79220;SDS011;68648;52.114;5.424;2023-04-25T02:51:35;11.23;;;1.20;;
79220;SDS011;68648;52.114;5.424;2023-04-25T02:54:02;7.60;;;1.25;;
79220;SDS011;68648;52.114;5.424;2023-04-25T02:56:29;8.93;;;1.25;;
79220;SDS011;68648;52.114;5.424;2023-04-25T02:58:56;15.35;;;1.42;;
79220;SDS011;68648;52.114;5.424;2023-04-25T03:03:49;17.38;;;2.15;;
79220;SDS011;68648;52.114;5.424;2023-04-25T03:06:17;9.25;;;2.25;;
79220;SDS011;68648;52.114;5.424;2023-04-25T03:08:43;11.52;;;1.63;;
79220;SDS011;68648;52.114;5.424;2023-04-25T03:11:10;7.45;;;1.73;;
79220;SDS011;68648;52.114;5.424;2023-04-25T03:13:42;10.68;;;1.65;;
79220;SDS011;68648;52.114;5.424;2023-04-25T03:16:09;7.38;;;1.30;;
79220;SDS011;68648;52.114;5.424;2023-04-25T03:18:36;9.73;;;1.58;;
79220;SDS011;68648;52.114;5.424;2023-04-25T03:21:03;7.85;;;1.25;;
79220;SDS011;68648;52.114;5.424;2023-04-25T03:23:30;14.82;;;1.77;;
79220;SDS011;68648;52.114;5.424;2023-04-25T03:28:23;6.72;;;0.98;;
79220;SDS011;68648;52.114;5.424;2023-04-25T03:30:50;7.65;;;1.55;;
79220;SDS011;68648;52.114;5.424;2023-04-25T03:33:16;12.43;;;1.80;;
79220;SDS011;68648;52.114;5.424;2023-04-25T03:38:10;7.85;;;1.08;;
79220;SDS011;68648;52.114;5.424;2023-04-25T03:40:37;7.82;;;1.35;;
79220;SDS011;68648;52.114;5.424;2023-04-25T03:43:04;9.55;;;2.03;;
79220;SDS011;68648;52.114;5.424;2023-04-25T03:45:31;13.88;;;1.58;;
79220;SDS011;68648;52.114;5.424;2023-04-25T03:47:58;7.85;;;1.00;;
79220;SDS011;68648;52.114;5.424;2023-04-25T03:50:24;8.52;;;1.50;;
79220;SDS011;68648;52.114;5.424;2023-04-25T03:52:51;7.70;;;1.23;;
79220;SDS011;68648;52.114;5.424;2023-04-25T03:57:45;7.30;;;1.17;;
79220;SDS011;68648;52.114;5.424;2023-04-25T04:00:12;14.35;;;1.38;;
79220;SDS011;68648;52.114;5.424;2023-04-25T04:02:39;14.70;;;1.40;;
79220;SDS011;68648;52.114;5.424;2023-04-25T04:05:09;13.90;;;1.65;;
79220;SDS011;68648;52.114;5.424;2023-04-25T04:07:39;12.82;;;1.60;;
79220;SDS011;68648;52.114;5.424;2023-04-25T04:10:07;6.30;;;1.30;;
79220;SDS011;68648;52.114;5.424;2023-04-25T04:12:33;13.02;;;1.10;;
79220;SDS011;68648;52.114;5.424;2023-04-25T04:15:01;8.90;;;1.13;;
79220;SDS011;68648;52.114;5.424;2023-04-25T04:17:30;10.02;;;0.77;;
79220;SDS011;68648;52.114;5.424;2023-04-25T04:19:57;11.27;;;1.20;;
79220;SDS011;68648;52.114;5.424;2023-04-25T04:22:24;8.10;;;0.98;;
79220;SDS011;68648;52.114;5.424;2023-04-25T04:24:51;6.00;;;0.68;;
79220;SDS011;68648;52.114;5.424;2023-04-25T04:27:19;9.75;;;0.80;;
79220;SDS011;68648;52.114;5.424;2023-04-25T04:29:46;6.07;;;0.60;;
79220;SDS011;68648;52.114;5.424;2023-04-25T04:32:13;8.30;;;1.02;;
79220;SDS011;68648;52.114;5.424;2023-04-25T04:34:40;9.57;;;0.93;;
79220;SDS011;68648;52.114;5.424;2023-04-25T04:37:07;9.32;;;1.02;;
79220;SDS011;68648;52.114;5.424;2023-04-25T04:39:34;7.70;;;0.55;;
79220;SDS011;68648;52.114;5.424;2023-04-25T04:42:00;8.88;;;1.13;;
79220;SDS011;68648;52.114;5.424;2023-04-25T04:44:31;27.95;;;1.75;;
79220;SDS011;68648;52.114;5.424;2023-04-25T04:47:04;8.73;;;1.52;;
79220;SDS011;68648;52.114;5.424;2023-04-25T04:49:32;6.85;;;0.47;;
79220;SDS011;68648;52.114;5.424;2023-04-25T04:52:01;7.93;;;1.00;;
79220;SDS011;68648;52.114;5.424;2023-04-25T04:54:28;6.30;;;0.80;;
79220;SDS011;68648;52.114;5.424;2023-04-25T04:56:55;8.95;;;1.77;;
79220;SDS011;68648;52.114;5.424;2023-04-25T04:59:24;5.95;;;0.50;;
79220;SDS011;68648;52.114;5.424;2023-04-25T05:01:52;10.77;;;0.70;;
79220;SDS011;68648;52.114;5.424;2023-04-25T05:04:19;7.43;;;0.95;;
79220;SDS011;68648;52.114;5.424;2023-04-25T05:06:45;9.32;;;1.13;;
79220;SDS011;68648;52.114;5.424;2023-04-25T05:09:14;7.95;;;0.50;;
79220;SDS011;68648;52.114;5.424;2023-04-25T05:11:41;5.15;;;0.60;;
79220;SDS011;68648;52.114;5.424;2023-04-25T05:16:34;11.10;;;1.50;;
79220;SDS011;68648;52.114;5.424;2023-04-25T05:19:01;4.88;;;0.77;;
79220;SDS011;68648;52.114;5.424;2023-04-25T05:21:28;8.77;;;1.20;;
79220;SDS011;68648;52.114;5.424;2023-04-25T05:23:55;9.43;;;0.95;;
79220;SDS011;68648;52.114;5.424;2023-04-25T05:26:22;8.85;;;0.63;;
79220;SDS011;68648;52.114;5.424;2023-04-25T05:28:51;7.53;;;0.95;;
79220;SDS011;68648;52.114;5.424;2023-04-25T05:31:18;6.40;;;0.90;;
79220;SDS011;68648;52.114;5.424;2023-04-25T05:33:45;8.55;;;1.27;;
79220;SDS011;68648;52.114;5.424;2023-04-25T05:36:12;5.35;;;0.50;;
79220;SDS011;68648;52.114;5.424;2023-04-25T05:38:40;8.18;;;0.65;;
79220;SDS011;68648;52.114;5.424;2023-04-25T05:43:33;6.05;;;1.05;;
79220;SDS011;68648;52.114;5.424;2023-04-25T05:48:27;4.22;;;0.77;;
79220;SDS011;68648;52.114;5.424;2023-04-25T05:50:53;4.85;;;0.68;;
79220;SDS011;68648;52.114;5.424;2023-04-25T05:53:20;4.18;;;0.60;;
79220;SDS011;68648;52.114;5.424;2023-04-25T05:55:48;8.98;;;1.13;;
79220;SDS011;68648;52.114;5.424;2023-04-25T05:58:14;4.38;;;1.00;;
79220;SDS011;68648;52.114;5.424;2023-04-25T06:00:41;5.45;;;0.55;;
79220;SDS011;68648;52.114;5.424;2023-04-25T06:03:08;9.68;;;1.02;;
79220;SDS011;68648;52.114;5.424;2023-04-25T06:05:36;9.77;;;1.10;;
79220;SDS011;68648;52.114;5.424;2023-04-25T06:08:03;6.07;;;0.38;;
79220;SDS011;68648;52.114;5.424;2023-04-25T06:10:29;5.88;;;0.50;;
79220;SDS011;68648;52.114;5.424;2023-04-25T06:12:56;5.45;;;1.02;;
79220;SDS011;68648;52.114;5.424;2023-04-25T06:15:23;5.45;;;0.63;;
79220;SDS011;68648;52.114;5.424;2023-04-25T06:17:54;9.25;;;0.63;;
79220;SDS011;68648;52.114;5.424;2023-04-25T06:20:21;6.97;;;0.65;;
79220;SDS011;68648;52.114;5.424;2023-04-25T06:22:50;7.57;;;0.52;;
79220;SDS011;68648;52.114;5.424;2023-04-25T06:25:17;8.73;;;0.80;;
79220;SDS011;68648;52.114;5.424;2023-04-25T06:27:44;5.82;;;0.63;;
79220;SDS011;68648;52.114;5.424;2023-04-25T06:30:11;7.82;;;0.75;;
79220;SDS011;68648;52.114;5.424;2023-04-25T06:32:38;7.50;;;0.75;;
79220;SDS011;68648;52.114;5.424;2023-04-25T06:35:05;7.00;;;0.47;;
79220;SDS011;68648;52.114;5.424;2023-04-25T06:37:32;9.50;;;0.93;;
79220;SDS011;68648;52.114;5.424;2023-04-25T06:39:59;8.05;;;0.60;;
79220;SDS011;68648;52.114;5.424;2023-04-25T06:42:27;3.95;;;0.52;;
79220;SDS011;68648;52.114;5.424;2023-04-25T06:44:56;6.72;;;0.70;;
79220;SDS011;68648;52.114;5.424;2023-04-25T06:47:22;7.72;;;0.60;;
79220;SDS011;68648;52.114;5.424;2023-04-25T06:49:49;4.78;;;0.60;;
79220;SDS011;68648;52.114;5.424;2023-04-25T06:52:16;8.80;;;0.73;;
79220;SDS011;68648;52.114;5.424;2023-04-25T06:54:44;4.57;;;0.30;;
79220;SDS011;68648;52.114;5.424;2023-04-25T06:57:11;7.40;;;0.63;;
79220;SDS011;68648;52.114;5.424;2023-04-25T06:59:38;6.57;;;0.98;;
79220;SDS011;68648;52.114;5.424;2023-04-25T07:02:05;7.90;;;0.70;;
79220;SDS011;68648;52.114;5.424;2023-04-25T07:04:32;5.82;;;0.63;;
79220;SDS011;68648;52.114;5.424;2023-04-25T07:06:59;5.75;;;0.47;;
79220;SDS011;68648;52.114;5.424;2023-04-25T07:09:27;9.85;;;0.50;;
79220;SDS011;68648;52.114;5.424;2023-04-25T07:11:53;7.18;;;0.50;;
79220;SDS011;68648;52.114;5.424;2023-04-25T07:14:20;5.15;;;0.52;;
79220;SDS011;68648;52.114;5.424;2023-04-25T07:16:46;7.95;;;0.70;;
79220;SDS011;68648;52.114;5.424;2023-04-25T07:19:13;6.68;;;0.50;;
79220;SDS011;68648;52.114;5.424;2023-04-25T07:24:06;7.20;;;0.75;;
79220;SDS011;68648;52.114;5.424;2023-04-25T07:26:32;12.20;;;0.93;;
79220;SDS011;68648;52.114;5.424;2023-04-25T07:28:59;3.35;;;0.70;;
79220;SDS011;68648;52.114;5.424;2023-04-25T07:31:26;9.18;;;0.70;;
79220;SDS011;68648;52.114;5.424;2023-04-25T07:33:52;6.78;;;0.65;;
79220;SDS011;68648;52.114;5.424;2023-04-25T07:38:45;7.55;;;0.95;;
79220;SDS011;68648;52.114;5.424;2023-04-25T07:41:12;5.30;;;0.30;;
79220;SDS011;68648;52.114;5.424;2023-04-25T07:43:39;6.00;;;0.68;;
79220;SDS011;68648;52.114;5.424;2023-04-25T07:46:05;7.70;;;0.68;;
79220;SDS011;68648;52.114;5.424;2023-04-25T07:48:32;7.90;;;0.50;;
79220;SDS011;68648;52.114;5.424;2023-04-25T07:53:25;4.95;;;0.65;;
79220;SDS011;68648;52.114;5.424;2023-04-25T07:55:52;5.35;;;0.30;;
79220;SDS011;68648;52.114;5.424;2023-04-25T07:58:18;7.07;;;0.40;;
79220;SDS011;68648;52.114;5.424;2023-04-25T08:00:48;3.25;;;0.45;;
79220;SDS011;68648;52.114;5.424;2023-04-25T08:03:14;6.22;;;0.47;;
79220;SDS011;68648;52.114;5.424;2023-04-25T08:05:41;3.53;;;0.50;;
79220;SDS011;68648;52.114;5.424;2023-04-25T08:08:08;7.93;;;0.90;;
79220;SDS011;68648;52.114;5.424;2023-04-25T08:10:35;12.50;;;0.70;;
79220;SDS011;68648;52.114;5.424;2023-04-25T08:13:01;1.95;;;0.20;;
79220;SDS011;68648;52.114;5.424;2023-04-25T08:15:28;6.43;;;0.80;;
79220;SDS011;68648;52.114;5.424;2023-04-25T08:17:55;4.70;;;0.30;;
79220;SDS011;68648;52.114;5.424;2023-04-25T08:20:22;3.78;;;0.52;;
79220;SDS011;68648;52.114;5.424;2023-04-25T08:22:48;5.28;;;0.40;;
79220;SDS011;68648;52.114;5.424;2023-04-25T08:25:15;7.05;;;0.55;;
79220;SDS011;68648;52.114;5.424;2023-04-25T08:27:42;5.20;;;0.40;;
79220;SDS011;68648;52.114;5.424;2023-04-25T08:30:11;4.85;;;0.40;;
79220;SDS011;68648;52.114;5.424;2023-04-25T08:32:38;5.97;;;0.73;;
79220;SDS011;68648;52.114;5.424;2023-04-25T08:35:05;3.45;;;0.30;;
79220;SDS011;68648;52.114;5.424;2023-04-25T08:37:41;5.18;;;0.30;;
79220;SDS011;68648;52.114;5.424;2023-04-25T08:40:08;3.70;;;0.50;;
79220;SDS011;68648;52.114;5.424;2023-04-25T08:42:45;4.57;;;0.30;;
79220;SDS011;68648;52.114;5.424;2023-04-25T08:45:14;4.40;;;0.30;;
79220;SDS011;68648;52.114;5.424;2023-04-25T08:47:52;3.78;;;0.20;;
79220;SDS011;68648;52.114;5.424;2023-04-25T08:50:31;2.40;;;0.22;;
79220;SDS011;68648;52.114;5.424;2023-04-25T08:53:09;6.80;;;0.43;;
79220;SDS011;68648;52.114;5.424;2023-04-25T08:55:46;4.70;;;0.25;;
79220;SDS011;68648;52.114;5.424;2023-04-25T08:58:31;5.63;;;0.32;;
79220;SDS011;68648;52.114;5.424;2023-04-25T09:01:24;5.20;;;0.55;;
79220;SDS011;68648;52.114;5.424;2023-04-25T09:03:51;4.95;;;0.32;;
79220;SDS011;68648;52.114;5.424;2023-04-25T09:06:20;4.53;;;0.38;;
79220;SDS011;68648;52.114;5.424;2023-04-25T09:08:49;4.75;;;0.50;;
79220;SDS011;68648;52.114;5.424;2023-04-25T09:11:16;4.93;;;0.30;;
79220;SDS011;68648;52.114;5.424;2023-04-25T09:13:45;6.43;;;0.40;;
79220;SDS011;68648;52.114;5.424;2023-04-25T09:16:12;4.10;;;0.63;;
79220;SDS011;68648;52.114;5.424;2023-04-25T09:18:43;8.00;;;0.57;;
79220;SDS011;68648;52.114;5.424;2023-04-25T09:21:14;4.38;;;0.40;;
79220;SDS011;68648;52.114;5.424;2023-04-25T09:23:45;7.05;;;0.40;;
79220;SDS011;68648;52.114;5.424;2023-04-25T09:26:14;5.88;;;0.70;;
79220;SDS011;68648;52.114;5.424;2023-04-25T09:28:43;5.05;;;0.63;;
79220;SDS011;68648;52.114;5.424;2023-04-25T09:31:10;4.65;;;0.40;;
79220;SDS011;68648;52.114;5.424;2023-04-25T09:33:37;5.82;;;0.30;;
79220;SDS011;68648;52.114;5.424;2023-04-25T09:36:05;3.33;;;0.30;;
79220;SDS011;68648;52.114;5.424;2023-04-25T09:38:40;6.35;;;0.50;;
79220;SDS011;68648;52.114;5.424;2023-04-25T09:41:09;3.53;;;0.20;;
79220;SDS011;68648;52.114;5.424;2023-04-25T09:43:36;6.25;;;0.40;;
79220;SDS011;68648;52.114;5.424;2023-04-25T09:46:07;5.07;;;0.57;;
79220;SDS011;68648;52.114;5.424;2023-04-25T09:48:36;5.55;;;0.43;;
79220;SDS011;68648;52.114;5.424;2023-04-25T09:53:29;4.65;;;0.40;;
79220;SDS011;68648;52.114;5.424;2023-04-25T09:55:56;3.65;;;0.60;;
79220;SDS011;68648;52.114;5.424;2023-04-25T09:58:28;6.28;;;0.40;;
79220;SDS011;68648;52.114;5.424;2023-04-25T10:00:59;5.32;;;0.40;;
79220;SDS011;68648;52.114;5.424;2023-04-25T10:03:32;5.30;;;0.57;;
79220;SDS011;68648;52.114;5.424;2023-04-25T10:06:02;4.45;;;0.43;;
79220;SDS011;68648;52.114;5.424;2023-04-25T10:08:34;4.43;;;0.50;;
79220;SDS011;68648;52.114;5.424;2023-04-25T10:11:08;5.40;;;0.52;;
79220;SDS011;68648;52.114;5.424;2023-04-25T10:13:35;3.25;;;0.20;;
79220;SDS011;68648;52.114;5.424;2023-04-25T10:16:02;3.58;;;0.30;;
79220;SDS011;68648;52.114;5.424;2023-04-25T10:18:31;4.72;;;0.40;;
79220;SDS011;68648;52.114;5.424;2023-04-25T10:21:03;4.22;;;0.40;;
79220;SDS011;68648;52.114;5.424;2023-04-25T10:23:31;2.15;;;0.20;;
79220;SDS011;68648;52.114;5.424;2023-04-25T10:25:58;4.13;;;0.50;;
79220;SDS011;68648;52.114;5.424;2023-04-25T10:28:26;5.07;;;0.47;;
79220;SDS011;68648;52.114;5.424;2023-04-25T10:33:36;4.30;;;0.50;;
79220;SDS011;68648;52.114;5.424;2023-04-25T10:36:18;1.73;;;0.40;;
79220;SDS011;68648;52.114;5.424;2023-04-25T10:38:47;3.58;;;0.30;;
79220;SDS011;68648;52.114;5.424;2023-04-25T10:41:19;3.83;;;0.28;;
79220;SDS011;68648;52.114;5.424;2023-04-25T10:43:47;3.85;;;0.30;;
79220;SDS011;68648;52.114;5.424;2023-04-25T10:46:27;4.35;;;0.30;;
79220;SDS011;68648;52.114;5.424;2023-04-25T10:48:59;4.22;;;0.30;;
79220;SDS011;68648;52.114;5.424;2023-04-25T10:54:08;4.43;;;0.85;;
79220;SDS011;68648;52.114;5.424;2023-04-25T11:01:37;3.13;;;0.30;;
79220;SDS011;68648;52.114;5.424;2023-04-25T11:04:05;7.63;;;0.50;;
79220;SDS011;68648;52.114;5.424;2023-04-25T11:09:28;3.55;;;1.05;;
79220;SDS011;68648;52.114;5.424;2023-04-25T11:11:56;5.72;;;0.30;;
79220;SDS011;68648;52.114;5.424;2023-04-25T11:14:24;4.60;;;0.38;;
79220;SDS011;68648;52.114;5.424;2023-04-25T11:16:54;5.03;;;0.73;;
79220;SDS011;68648;52.114;5.424;2023-04-25T11:19:26;5.22;;;0.50;;
79220;SDS011;68648;52.114;5.424;2023-04-25T11:21:56;3.75;;;0.30;;
79220;SDS011;68648;52.114;5.424;2023-04-25T11:24:27;4.43;;;0.30;;
79220;SDS011;68648;52.114;5.424;2023-04-25T11:26:54;5.25;;;0.30;;
79220;SDS011;68648;52.114;5.424;2023-04-25T11:29:27;3.45;;;0.50;;
79220;SDS011;68648;52.114;5.424;2023-04-25T11:31:55;3.45;;;0.70;;
79220;SDS011;68648;52.114;5.424;2023-04-25T11:34:26;3.95;;;0.30;;
79220;SDS011;68648;52.114;5.424;2023-04-25T11:36:56;4.05;;;0.52;;
79220;SDS011;68648;52.114;5.424;2023-04-25T11:39:23;2.63;;;0.45;;
79220;SDS011;68648;52.114;5.424;2023-04-25T11:41:51;6.00;;;0.52;;
79220;SDS011;68648;52.114;5.424;2023-04-25T11:44:19;5.38;;;0.55;;
79220;SDS011;68648;52.114;5.424;2023-04-25T11:46:47;4.63;;;0.25;;
79220;SDS011;68648;52.114;5.424;2023-04-25T11:49:15;4.95;;;0.63;;
79220;SDS011;68648;52.114;5.424;2023-04-25T11:51:45;7.70;;;0.85;;
79220;SDS011;68648;52.114;5.424;2023-04-25T11:54:13;4.65;;;0.32;;
79220;SDS011;68648;52.114;5.424;2023-04-25T11:56:41;5.03;;;0.40;;
79220;SDS011;68648;52.114;5.424;2023-04-25T11:59:08;3.58;;;0.40;;
79220;SDS011;68648;52.114;5.424;2023-04-25T12:01:36;3.40;;;0.30;;
79220;SDS011;68648;52.114;5.424;2023-04-25T12:04:11;6.22;;;0.28;;
79220;SDS011;68648;52.114;5.424;2023-04-25T12:06:46;6.38;;;0.40;;
79220;SDS011;68648;52.114;5.424;2023-04-25T12:09:17;6.78;;;0.50;;
79220;SDS011;68648;52.114;5.424;2023-04-25T12:11:48;4.90;;;0.30;;
79220;SDS011;68648;52.114;5.424;2023-04-25T12:17:15;4.57;;;0.40;;
79220;SDS011;68648;52.114;5.424;2023-04-25T12:19:43;3.97;;;0.40;;
79220;SDS011;68648;52.114;5.424;2023-04-25T12:22:20;4.85;;;0.70;;
79220;SDS011;68648;52.114;5.424;2023-04-25T12:24:50;6.50;;;0.55;;
79220;SDS011;68648;52.114;5.424;2023-04-25T12:27:19;2.33;;;0.32;;
79220;SDS011;68648;52.114;5.424;2023-04-25T12:29:53;5.72;;;0.40;;
79220;SDS011;68648;52.114;5.424;2023-04-25T12:32:23;4.13;;;0.40;;
79220;SDS011;68648;52.114;5.424;2023-04-25T12:34:51;6.68;;;0.40;;
79220;SDS011;68648;52.114;5.424;2023-04-25T12:37:18;4.85;;;0.52;;
79220;SDS011;68648;52.114;5.424;2023-04-25T12:39:45;4.50;;;0.43;;
79220;SDS011;68648;52.114;5.424;2023-04-25T12:42:12;5.88;;;0.45;;
79220;SDS011;68648;52.114;5.424;2023-04-25T12:44:39;4.57;;;0.60;;
79220;SDS011;68648;52.114;5.424;2023-04-25T12:47:06;4.47;;;0.85;;
79220;SDS011;68648;52.114;5.424;2023-04-25T12:49:33;2.90;;;0.50;;
79220;SDS011;68648;52.114;5.424;2023-04-25T12:52:00;3.92;;;0.43;;
79220;SDS011;68648;52.114;5.424;2023-04-25T12:54:27;3.13;;;0.30;;
79220;SDS011;68648;52.114;5.424;2023-04-25T12:56:53;3.83;;;0.43;;
79220;SDS011;68648;52.114;5.424;2023-04-25T12:59:21;6.07;;;0.68;;
79220;SDS011;68648;52.114;5.424;2023-04-25T13:01:47;3.88;;;0.30;;
79220;SDS011;68648;52.114;5.424;2023-04-25T13:04:14;5.30;;;0.38;;
79220;SDS011;68648;52.114;5.424;2023-04-25T13:06:42;3.15;;;0.40;;
79220;SDS011;68648;52.114;5.424;2023-04-25T13:09:09;4.57;;;1.33;;
79220;SDS011;68648;52.114;5.424;2023-04-25T13:11:37;3.97;;;0.50;;
79220;SDS011;68648;52.114;5.424;2023-04-25T13:14:04;3.33;;;0.65;;
79220;SDS011;68648;52.114;5.424;2023-04-25T13:16:30;3.45;;;0.35;;
79220;SDS011;68648;52.114;5.424;2023-04-25T13:18:58;4.57;;;0.43;;
79220;SDS011;68648;52.114;5.424;2023-04-25T13:21:25;5.18;;;0.47;;
79220;SDS011;68648;52.114;5.424;2023-04-25T13:23:51;4.45;;;0.40;;
79220;SDS011;68648;52.114;5.424;2023-04-25T13:26:22;6.03;;;0.70;;
79220;SDS011;68648;52.114;5.424;2023-04-25T13:28:48;4.65;;;0.32;;
79220;SDS011;68648;52.114;5.424;2023-04-25T13:31:15;4.65;;;0.50;;
79220;SDS011;68648;52.114;5.424;2023-04-25T13:33:41;3.63;;;0.52;;
79220;SDS011;68648;52.114;5.424;2023-04-25T13:36:08;5.63;;;0.57;;
79220;SDS011;68648;52.114;5.424;2023-04-25T13:38:36;5.65;;;0.45;;
79220;SDS011;68648;52.114;5.424;2023-04-25T13:41:05;2.67;;;0.65;;
79220;SDS011;68648;52.114;5.424;2023-04-25T13:43:33;3.40;;;0.88;;
79220;SDS011;68648;52.114;5.424;2023-04-25T13:46:00;2.28;;;0.40;;
79220;SDS011;68648;52.114;5.424;2023-04-25T13:48:26;2.47;;;0.70;;
79220;SDS011;68648;52.114;5.424;2023-04-25T13:50:53;4.45;;;0.40;;
79220;SDS011;68648;52.114;5.424;2023-04-25T13:53:20;6.93;;;0.60;;
79220;SDS011;68648;52.114;5.424;2023-04-25T13:55:48;3.05;;;0.40;;
79220;SDS011;68648;52.114;5.424;2023-04-25T13:58:16;4.80;;;0.30;;
79220;SDS011;68648;52.114;5.424;2023-04-25T14:00:42;8.32;;;0.50;;
79220;SDS011;68648;52.114;5.424;2023-04-25T14:03:11;5.10;;;0.30;;
79220;SDS011;68648;52.114;5.424;2023-04-25T14:05:38;4.13;;;0.50;;
79220;SDS011;68648;52.114;5.424;2023-04-25T14:08:07;4.68;;;0.30;;
79220;SDS011;68648;52.114;5.424;2023-04-25T14:10:35;5.20;;;1.20;;
79220;SDS011;68648;52.114;5.424;2023-04-25T14:13:03;5.47;;;0.52;;
79220;SDS011;68648;52.114;5.424;2023-04-25T14:15:34;4.65;;;0.43;;
79220;SDS011;68648;52.114;5.424;2023-04-25T14:18:01;3.70;;;0.43;;
79220;SDS011;68648;52.114;5.424;2023-04-25T14:20:28;6.20;;;0.45;;
79220;SDS011;68648;52.114;5.424;2023-04-25T14:22:57;4.13;;;0.50;;
79220;SDS011;68648;52.114;5.424;2023-04-25T14:25:25;1.75;;;0.28;;
79220;SDS011;68648;52.114;5.424;2023-04-25T14:27:52;4.40;;;0.50;;
79220;SDS011;68648;52.114;5.424;2023-04-25T14:30:19;6.80;;;1.42;;
79220;SDS011;68648;52.114;5.424;2023-04-25T14:32:47;6.13;;;0.70;;
79220;SDS011;68648;52.114;5.424;2023-04-25T14:35:15;2.90;;;0.20;;
79220;SDS011;68648;52.114;5.424;2023-04-25T14:37:42;3.90;;;0.70;;
79220;SDS011;68648;52.114;5.424;2023-04-25T14:40:09;4.40;;;0.40;;
79220;SDS011;68648;52.114;5.424;2023-04-25T14:45:08;4.38;;;0.50;;
79220;SDS011;68648;52.114;5.424;2023-04-25T14:47:35;8.05;;;0.30;;
79220;SDS011;68648;52.114;5.424;2023-04-25T14:50:03;4.72;;;0.50;;
79220;SDS011;68648;52.114;5.424;2023-04-25T14:52:30;3.28;;;0.40;;
79220;SDS011;68648;52.114;5.424;2023-04-25T14:54:57;9.77;;;0.77;;
79220;SDS011;68648;52.114;5.424;2023-04-25T14:57:26;3.22;;;0.40;;
79220;SDS011;68648;52.114;5.424;2023-04-25T14:59:54;4.43;;;0.50;;
79220;SDS011;68648;52.114;5.424;2023-04-25T15:02:20;3.97;;;0.35;;
79220;SDS011;68648;52.114;5.424;2023-04-25T15:04:47;4.20;;;0.82;;
79220;SDS011;68648;52.114;5.424;2023-04-25T15:07:16;5.60;;;0.35;;
79220;SDS011;68648;52.114;5.424;2023-04-25T15:09:43;3.85;;;0.32;;
79220;SDS011;68648;52.114;5.424;2023-04-25T15:12:14;4.13;;;0.47;;
79220;SDS011;68648;52.114;5.424;2023-04-25T15:14:40;5.30;;;0.52;;
79220;SDS011;68648;52.114;5.424;2023-04-25T15:17:07;5.18;;;0.40;;
79220;SDS011;68648;52.114;5.424;2023-04-25T15:19:34;2.75;;;0.25;;
79220;SDS011;68648;52.114;5.424;2023-04-25T15:22:00;5.18;;;0.50;;
79220;SDS011;68648;52.114;5.424;2023-04-25T15:24:27;3.85;;;0.32;;
79220;SDS011;68648;52.114;5.424;2023-04-25T15:26:54;4.95;;;0.50;;
79220;SDS011;68648;52.114;5.424;2023-04-25T15:29:21;6.10;;;0.43;;
79220;SDS011;68648;52.114;5.424;2023-04-25T15:31:48;3.65;;;0.50;;
79220;SDS011;68648;52.114;5.424;2023-04-25T15:34:14;3.15;;;0.30;;
79220;SDS011;68648;52.114;5.424;2023-04-25T15:36:41;6.13;;;0.65;;
79220;SDS011;68648;52.114;5.424;2023-04-25T15:39:08;2.97;;;0.40;;
79220;SDS011;68648;52.114;5.424;2023-04-25T15:41:35;4.72;;;0.30;;
79220;SDS011;68648;52.114;5.424;2023-04-25T15:44:02;4.53;;;0.30;;
79220;SDS011;68648;52.114;5.424;2023-04-25T15:46:29;4.30;;;0.40;;
79220;SDS011;68648;52.114;5.424;2023-04-25T15:48:58;4.43;;;0.43;;
79220;SDS011;68648;52.114;5.424;2023-04-25T15:51:25;8.10;;;0.70;;
79220;SDS011;68648;52.114;5.424;2023-04-25T15:53:52;4.82;;;0.40;;
79220;SDS011;68648;52.114;5.424;2023-04-25T15:56:19;3.63;;;0.45;;